Погода Чайнона неделю

Калифорния, США

01 - 07 сентября
  • 01сентября
    Сегодня
    +15°
    +32°
    Ясно и безоблачно
    ВремяПогодаТемператураВлажностьДавлениеВетер, м/сВероятность осадков
    02:00Ясно и безоблачно+19°C76 %742 мм1.5 м/с2 %
    05:00Ясно и безоблачно+17°C84 %741 мм0.4 м/с2 %
    08:00Ясно и безоблачно+18°C75 %742 мм0.7 м/с2 %
    11:00Ясно и безоблачно+26°C42 %742 мм0.4 м/с2 %
    14:00Ясно и безоблачно+32°C25 %742 мм5.6 м/с2 %
    17:00Ясно и безоблачно+30°C29 %741 мм7.3 м/с2 %
    20:00Ясно и безоблачно+23°C49 %741 мм5.1 м/с2 %
    23:00Ясно и безоблачно+19°C64 %742 мм2.6 м/с2 %
  • 02сентября
    Среда
    +16°
    +32°
    Ясно и безоблачно
    ВремяПогодаТемператураВлажностьДавлениеВетер, м/сВероятность осадков
    02:00Ясно и безоблачно+17°C75 %742 мм0.5 м/с2 %
    05:00Ясно и безоблачно+16°C77 %742 мм0.2 м/с2 %
    08:00Ясно и безоблачно+19°C68 %743 мм0.4 м/с2 %
    11:00Ясно и безоблачно+26°C40 %743 мм0.2 м/с2 %
    14:00Ясно и безоблачно+31°C26 %742 мм4.7 м/с2 %
    17:00Ясно и безоблачно+30°C28 %741 мм7.2 м/с2 %
    20:00Ясно и безоблачно+23°C47 %741 мм5.5 м/с2 %
    23:00Ясно и безоблачно+19°C65 %742 мм1.7 м/с2 %
  • 03сентября
    Четверг
    +16°
    +31°
    Ясно и безоблачно
    ВремяПогодаТемператураВлажностьДавлениеВетер, м/сВероятность осадков
    02:00Ясно и безоблачно+17°C75 %741 мм0.4 м/с2 %
    05:00Ясно и безоблачно+16°C78 %741 мм0.0 м/с2 %
    08:00Ясно и безоблачно+19°C66 %741 мм0.6 м/с2 %
    11:00Ясно и безоблачно+26°C39 %741 мм0.0 м/с2 %
    14:00Ясно и безоблачно+31°C29 %740 мм4.6 м/с2 %
    17:00Ясно и безоблачно+28°C39 %739 мм7.3 м/с2 %
    20:00Ясно и безоблачно+22°C64 %739 мм5.4 м/с2 %
    23:00Ясно и безоблачно+19°C78 %740 мм1.7 м/с2 %
  • 04сентября
    Пятница
    +16°
    +32°
    Ясно и безоблачно
    ВремяПогодаТемператураВлажностьДавлениеВетер, м/сВероятность осадков
    02:00Ясно и безоблачно+17°C84 %740 мм0.6 м/с2 %
    05:00Ясно и безоблачно+16°C87 %740 мм0.0 м/с2 %
    08:00Ясно и безоблачно+19°C80 %740 мм0.6 м/с2 %
    11:00Ясно и безоблачно+26°C45 %741 мм0.0 м/с2 %
    14:00Ясно и безоблачно+31°C27 %740 мм4.4 м/с2 %
    17:00Ясно и безоблачно+30°C33 %739 мм6.6 м/с2 %
    20:00Ясно и безоблачно+23°C60 %740 мм4.9 м/с2 %
    23:00Ясно и безоблачно+19°C71 %741 мм1.5 м/с2 %
  • 05сентября
    Суббота
    +20°
    +34°
    Ясно и безоблачно
    ВремяПогодаТемператураВлажностьДавлениеВетер, м/сВероятность осадков
    02:00Ясно и безоблачно+18°C78 %740 мм0.2 м/с4 %
    05:00Ясно и безоблачно+17°C81 %740 мм0.0 м/с7 %
    08:00Ясно и безоблачно+20°C67 %741 мм0.7 м/с12 %
    11:00Ясно и безоблачно+29°C24 %741 мм0.2 м/с14 %
    14:00Ясно и безоблачно+33°C17 %740 мм3.6 м/с22 %
    17:00Ясно и безоблачно+31°C23 %739 мм5.9 м/с25 %
    20:00Ясно и безоблачно+25°C46 %740 мм5.3 м/с15 %
    23:00Практически безоблачно+23°C55 %741 мм1.3 м/с22 %
  • 06сентября
    Воскресенье
    +19°
    +33°
    Ясно и безоблачно
    ВремяПогодаТемператураВлажностьДавлениеВетер, м/сВероятность осадков
    05:00Небольшая облачность+20°C77 %740 мм0.5 м/с26 %
    11:00Ясно и безоблачно+28°C40 %741 мм0.1 м/с25 %
    17:00Ясно и безоблачно+32°C51 %739 мм4.1 м/с39 %
    23:00Ясно и безоблачно+24°C55 %741 мм1.4 м/с25 %
  • 07сентября
    Понедельник
    +17°
    +34°
    Ясно и безоблачно
    ВремяПогодаТемператураВлажностьДавлениеВетер, м/сВероятность осадков
    05:00Ясно и безоблачно+19°C65 %740 мм1.3 м/с19 %
    11:00Ясно и безоблачно+29°C32 %741 мм2.4 м/с21 %
    17:00Ясно и безоблачно+31°C28 %739 мм4.1 м/с27 %
    23:00Ясно и безоблачно+22°C61 %740 мм1.3 м/с16 %
Мы используем cookies
Соглашаюсь